Time;durP1;ratioP1;P1;durP2;ratioP2;P2;SDS_P1;SDS_P2;PMS_P1;PMS_P2;Temp;Humidity;BMP_temperature;BMP_pressure;BME280_temperature;BME280_humidity;BME280_pressure;Samples;Min_cycle;Max_cycle;Signal;HPM_P1;HPM_P2
2022/12/23 00:00:48;;;;;;;0.80;0.80;;;;;;;24.03;37.65;99312.63;1897744;75;28151;-44
2022/12/23 00:03:38;;;;;;;1.32;1.10;;;;;;;24.03;37.61;99304.93;1888831;75;28093;-45
2022/12/23 00:06:27;;;;;;;1.10;0.95;;;;;;;24.05;37.57;99305.51;1869128;76;29110;-45
2022/12/23 00:09:15;;;;;;;1.17;1.07;;;;;;;24.04;37.58;99311.53;1877385;75;28166;-46
2022/12/23 00:15:12;;;;;;;0.80;0.80;;;;;;;24.04;37.65;99295.06;1891086;75;28107;-45
2022/12/23 00:18:01;;;;;;;1.02;0.80;;;;;;;24.02;37.64;99300.51;1869035;76;28218;-45
2022/12/23 00:20:49;;;;;;;0.90;0.90;;;;;;;24.00;37.65;99299.39;1878923;75;28171;-43
2022/12/23 00:23:39;;;;;;;0.90;0.90;;;;;;;24.02;37.64;99284.05;1879662;75;28144;-44
2022/12/23 00:26:28;;;;;;;1.00;1.00;;;;;;;24.04;37.64;99290.11;1881297;75;28140;-48
2022/12/23 00:29:17;;;;;;;0.80;0.80;;;;;;;24.07;37.58;99285.54;1856894;75;28182;-43
2022/12/23 00:32:05;;;;;;;0.83;0.80;;;;;;;24.05;37.55;99287.67;1888784;75;28164;-43
2022/12/23 00:34:54;;;;;;;0.97;0.93;;;;;;;24.06;37.62;99286.64;1897930;75;28121;-45
2022/12/23 00:37:42;;;;;;;0.80;0.80;;;;;;;24.04;37.66;99277.77;1875951;75;28303;-45
2022/12/23 00:43:38;;;;;;;1.00;0.90;;;;;;;24.05;37.62;99269.30;1868851;75;28102;-46
2022/12/23 00:46:27;;;;;;;0.90;0.90;;;;;;;24.06;37.61;99264.69;1889137;75;28220;-44
2022/12/23 00:52:23;;;;;;;1.00;0.93;;;;;;;24.05;37.63;99253.37;1889246;75;28169;-45
2022/12/23 00:55:12;;;;;;;1.40;1.12;;;;;;;24.01;37.71;99248.10;1871488;75;28177;-45
2022/12/23 00:58:00;;;;;;;0.72;0.72;;;;;;;24.02;37.68;99244.26;1889129;75;28250;-44
2022/12/23 01:07:02;;;;;;;0.90;0.90;;;;;;;24.04;37.67;99233.86;1865087;75;28334;-46
2022/12/23 01:09:51;;;;;;;0.82;0.82;;;;;;;24.02;37.70;99235.49;1873089;75;28169;-44
2022/12/23 01:12:39;;;;;;;0.80;0.80;;;;;;;24.02;37.74;99239.61;1900727;74;28064;-44
2022/12/23 01:15:28;;;;;;;0.80;0.80;;;;;;;24.03;37.70;99233.59;1896032;75;28153;-46
2022/12/23 01:18:17;;;;;;;0.70;0.70;;;;;;;24.04;37.66;99228.38;1887151;75;28052;-44
2022/12/23 01:21:08;;;;;;;0.75;0.75;;;;;;;24.03;37.74;99226.19;1901497;75;28172;-46
2022/12/23 01:23:56;;;;;;;0.90;0.90;;;;;;;24.04;37.73;99233.33;1867786;75;28081;-44
2022/12/23 01:26:45;;;;;;;0.80;0.80;;;;;;;24.06;37.68;99238.62;1884457;75;28229;-44
2022/12/23 01:29:33;;;;;;;0.72;0.72;;;;;;;24.08;37.70;99232.33;1873812;75;28128;-44
2022/12/23 01:32:21;;;;;;;0.90;0.90;;;;;;;24.09;37.65;99236.72;1856948;77;32032;-44
2022/12/23 01:35:10;;;;;;;1.40;0.88;;;;;;;24.08;37.63;99243.31;1886093;75;28183;-44
2022/12/23 01:37:58;;;;;;;0.70;0.70;;;;;;;24.07;37.69;99254.52;1897071;75;28075;-46
2022/12/23 01:40:46;;;;;;;0.90;0.90;;;;;;;24.08;37.70;99247.42;1901271;75;28131;-43
2022/12/23 01:43:52;;;;;;;0.72;0.72;;;;;;;24.09;37.63;99257.84;1880765;75;28146;-45
2022/12/23 01:46:40;;;;;;;0.80;0.80;;;;;;;24.08;37.67;99265.27;1901491;75;28169;-44
2022/12/23 01:49:29;;;;;;;0.78;0.78;;;;;;;24.10;37.70;99272.70;1898262;75;28172;-43
2022/12/23 01:52:18;;;;;;;1.70;0.90;;;;;;;24.08;37.74;99280.36;1888781;75;28063;-45
2022/12/23 01:55:07;;;;;;;0.70;0.70;;;;;;;24.08;37.76;99293.23;1868988;76;28207;-45
2022/12/23 01:57:59;;;;;;;1.10;0.88;;;;;;;24.09;37.72;99286.12;1890997;75;28146;-44
2022/12/23 02:03:56;;;;;;;0.72;0.65;;;;;;;24.09;37.73;99295.72;1900536;75;28078;-44
2022/12/23 02:09:52;;;;;;;0.80;0.80;;;;;;;24.10;37.76;99294.66;1885229;75;28284;-44
2022/12/23 02:12:58;;;;;;;0.70;0.70;;;;;;;24.08;37.81;99305.59;1901444;75;28052;-46
2022/12/23 02:19:08;;;;;;;1.05;0.88;;;;;;;24.03;37.84;99300.81;1890435;75;28640;-44
2022/12/23 02:22:05;;;;;;;0.80;0.80;;;;;;;24.04;37.88;99292.33;1869161;76;28213;-44
2022/12/23 02:25:17;;;;;;;0.70;0.70;;;;;;;24.06;37.81;99296.24;1891059;75;28064;-43
2022/12/23 02:28:38;;;;;;;0.70;0.70;;;;;;;24.07;37.86;99291.56;1890195;75;28130;-44
2022/12/23 02:31:35;;;;;;;0.72;0.72;;;;;;;24.05;37.84;99298.12;1890431;75;28154;-44
2022/12/23 02:34:38;;;;;;;0.68;0.68;;;;;;;24.01;37.90;99297.49;1885761;75;38424;-45
2022/12/23 02:37:35;;;;;;;0.80;0.80;;;;;;;24.01;37.91;99296.92;1868905;76;28180;-45
2022/12/23 02:40:33;;;;;;;0.50;0.50;;;;;;;24.03;37.90;99292.58;1868277;76;28052;-45
2022/12/23 02:43:24;;;;;;;1.40;0.60;;;;;;;24.02;37.95;99303.25;1877931;75;28052;-44
2022/12/23 02:46:15;;;;;;;0.90;0.90;;;;;;;24.02;37.92;99293.65;1879690;75;28234;-49
2022/12/23 02:49:09;;;;;;;0.80;0.80;;;;;;;24.07;37.87;99288.28;1881417;75;28425;-43
2022/12/23 02:52:01;;;;;;;1.00;0.70;;;;;;;24.05;37.88;99287.14;1884182;75;28132;-45
2022/12/23 02:54:52;;;;;;;0.90;0.90;;;;;;;24.05;37.89;99294.00;1901467;75;31331;-43
2022/12/23 02:57:43;;;;;;;0.70;0.70;;;;;;;24.07;37.87;99300.63;1896622;75;28252;-44
2022/12/23 03:00:33;;;;;;;0.80;0.80;;;;;;;24.08;37.89;99292.70;1890444;75;28193;-45
2022/12/23 03:03:21;;;;;;;0.90;0.90;;;;;;;24.06;37.84;99292.13;1869047;76;28127;-44
2022/12/23 03:06:34;;;;;;;0.70;0.70;;;;;;;24.05;37.85;99284.39;1868882;76;28268;-45
2022/12/23 03:09:38;;;;;;;1.00;0.70;;;;;;;24.07;37.88;99279.21;1891202;75;33026;-44
2022/12/23 03:12:53;;;;;;;0.72;0.72;;;;;;;24.04;37.91;99292.33;1845125;75;28152;-45
2022/12/23 03:16:00;;;;;;;0.70;0.70;;;;;;;24.02;37.96;99287.63;1879402;75;28084;-45
2022/12/23 03:19:26;;;;;;;0.70;0.70;;;;;;;24.00;37.97;99287.58;1901456;75;28119;-47
2022/12/23 03:22:38;;;;;;;0.70;0.70;;;;;;;23.98;38.03;99287.00;1901403;75;28230;-45
2022/12/23 03:25:33;;;;;;;0.70;0.70;;;;;;;23.95;38.03;99279.27;1874995;75;28091;-43
2022/12/23 03:28:36;;;;;;;0.85;0.85;;;;;;;23.95;38.11;99278.73;1879874;75;28632;-45
2022/12/23 03:31:27;;;;;;;0.60;0.60;;;;;;;23.97;38.12;99282.05;1879898;75;28245;-47
2022/12/23 03:34:19;;;;;;;0.98;0.98;;;;;;;23.96;38.07;99285.89;1901414;75;28118;-44
2022/12/23 03:37:10;;;;;;;0.68;0.68;;;;;;;23.98;38.03;99291.12;1869245;76;28666;-45
2022/12/23 03:40:11;;;;;;;0.65;0.65;;;;;;;24.00;38.05;99288.95;1898830;75;28095;-44
2022/12/23 03:43:02;;;;;;;0.78;0.78;;;;;;;24.01;37.98;99287.89;1896696;75;28177;-43
2022/12/23 03:45:56;;;;;;;0.63;0.63;;;;;;;24.01;38.00;99290.63;1890823;75;28177;-44
2022/12/23 03:48:47;;;;;;;0.70;0.70;;;;;;;24.03;37.98;99285.72;1901372;75;28150;-45
2022/12/23 03:51:54;;;;;;;0.88;0.88;;;;;;;24.02;37.89;99276.66;1874692;75;28228;-45
2022/12/23 03:54:54;;;;;;;1.80;0.80;;;;;;;24.04;37.95;99288.73;1891528;75;28314;-43
2022/12/23 03:57:45;;;;;;;0.70;0.70;;;;;;;24.02;37.97;99281.30;1867057;76;28277;-45
2022/12/23 04:00:37;;;;;;;0.68;0.68;;;;;;;24.04;37.93;99274.48;1867134;76;28779;-46
2022/12/23 04:03:31;;;;;;;0.78;0.78;;;;;;;24.05;37.93;99267.93;1885201;75;28138;-45
2022/12/23 04:06:21;;;;;;;0.60;0.60;;;;;;;24.04;37.96;99273.11;1869215;76;28092;-43
2022/12/23 04:09:11;;;;;;;0.70;0.70;;;;;;;24.01;37.98;99274.17;1897885;75;28177;-43
2022/12/23 04:12:00;;;;;;;0.65;0.65;;;;;;;24.03;37.95;99270.09;1899786;75;28087;-43
2022/12/23 04:14:50;;;;;;;0.80;0.80;;;;;;;24.07;37.95;99273.19;1886580;75;28099;-45
2022/12/23 04:17:38;;;;;;;0.70;0.70;;;;;;;24.09;37.86;99270.19;1881054;75;28179;-46
2022/12/23 04:20:27;;;;;;;0.70;0.70;;;;;;;24.06;37.88;99267.42;1894843;75;28056;-44
2022/12/23 04:23:15;;;;;;;0.80;0.60;;;;;;;24.11;37.85;99259.81;1891602;75;28134;-44
2022/12/23 04:26:04;;;;;;;0.70;0.70;;;;;;;24.10;37.80;99246.63;1901236;75;28215;-44
2022/12/23 04:28:52;;;;;;;1.90;0.60;;;;;;;24.10;37.82;99248.53;1869110;76;28231;-45
2022/12/23 04:31:40;;;;;;;0.68;0.68;;;;;;;24.10;37.88;99252.66;1873772;75;28102;-44
2022/12/23 04:34:28;;;;;;;0.80;0.70;;;;;;;24.09;37.86;99242.74;1880844;75;28142;-45
2022/12/23 04:37:17;;;;;;;0.60;0.60;;;;;;;24.09;37.79;99235.34;1891952;75;28093;-44
2022/12/23 04:40:06;;;;;;;0.60;0.60;;;;;;;24.07;37.84;99243.54;1896032;75;28135;-44
2022/12/23 04:42:55;;;;;;;0.60;0.60;;;;;;;24.09;37.87;99227.12;1889027;75;28139;-44
2022/12/23 04:45:43;;;;;;;2.17;0.70;;;;;;;24.10;37.82;99230.16;1882063;75;28142;-51
2022/12/23 04:48:32;;;;;;;0.60;0.60;;;;;;;24.13;37.81;99228.30;1878422;74;28116;-45
2022/12/23 04:51:20;;;;;;;0.62;0.62;;;;;;;24.11;37.80;99230.44;1890984;75;28175;-44
2022/12/23 04:54:09;;;;;;;1.20;1.10;;;;;;;24.12;37.78;99234.86;1892178;75;28056;-43
2022/12/23 04:56:57;;;;;;;0.50;0.50;;;;;;;24.10;37.80;99228.80;1884255;75;28143;-43
2022/12/23 04:59:45;;;;;;;0.60;0.60;;;;;;;24.10;37.82;99215.61;1868759;76;28159;-45
2022/12/23 05:02:34;;;;;;;0.68;0.68;;;;;;;24.09;37.83;99226.28;1890609;75;28164;-45
2022/12/23 05:05:22;;;;;;;0.60;0.60;;;;;;;24.05;37.86;99230.89;1889893;75;38500;-44
2022/12/23 05:08:10;;;;;;;0.65;0.65;;;;;;;24.07;37.84;99247.13;1898050;75;28064;-44
2022/12/23 05:10:59;;;;;;;0.70;0.70;;;;;;;24.08;37.83;99241.94;1891441;75;28400;-43
2022/12/23 05:13:48;;;;;;;0.70;0.70;;;;;;;24.09;37.82;99257.30;1894722;75;28083;-44
2022/12/23 05:16:36;;;;;;;0.63;0.63;;;;;;;24.07;37.85;99247.66;1877474;75;28161;-46
2022/12/23 05:19:24;;;;;;;0.57;0.57;;;;;;;24.09;37.83;99251.81;1883336;75;28091;-45
2022/12/23 05:22:12;;;;;;;0.75;0.75;;;;;;;24.07;37.83;99243.54;1893444;75;28122;-44
2022/12/23 05:25:01;;;;;;;0.70;0.70;;;;;;;24.07;37.85;99251.77;1892507;75;28099;-44
2022/12/23 05:27:49;;;;;;;0.78;0.55;;;;;;;24.05;37.87;99252.00;1880350;75;28665;-47
2022/12/23 05:30:37;;;;;;;1.30;0.60;;;;;;;24.03;37.92;99261.86;1876155;75;28081;-44
2022/12/23 05:33:27;;;;;;;0.60;0.60;;;;;;;24.04;37.87;99247.58;1889236;75;28109;-44
2022/12/23 05:36:15;;;;;;;0.68;0.68;;;;;;;24.02;37.90;99249.75;1889096;75;28099;-43
2022/12/23 05:39:03;;;;;;;0.70;0.70;;;;;;;24.04;37.89;99237.98;1868677;76;28208;-45
2022/12/23 05:41:52;;;;;;;0.47;0.47;;;;;;;24.03;37.86;99245.41;1900234;75;28181;-45
2022/12/23 05:44:40;;;;;;;0.50;0.50;;;;;;;24.03;37.86;99235.80;1879028;75;28295;-45
2022/12/23 05:47:29;;;;;;;1.20;0.68;;;;;;;24.03;37.86;99247.30;1880738;75;28117;-45
2022/12/23 05:50:18;;;;;;;0.70;0.60;;;;;;;24.04;37.83;99229.75;1868946;76;28155;-45
2022/12/23 05:53:08;;;;;;;0.60;0.60;;;;;;;24.01;37.88;99226.16;1871227;75;28134;-46
2022/12/23 05:55:57;;;;;;;0.53;0.53;;;;;;;24.04;37.86;99227.00;1901329;75;28118;-45
2022/12/23 05:58:45;;;;;;;0.70;0.70;;;;;;;24.04;37.83;99222.88;1901513;75;28099;-46
2022/12/23 06:01:33;;;;;;;0.60;0.60;;;;;;;24.01;37.86;99236.56;1868580;76;28156;-45
2022/12/23 06:04:21;;;;;;;0.62;0.62;;;;;;;24.02;37.86;99226.42;1884431;75;28273;-44
2022/12/23 06:07:10;;;;;;;0.60;0.60;;;;;;;24.01;37.87;99235.75;1891166;75;28060;-43
2022/12/23 06:09:58;;;;;;;0.60;0.60;;;;;;;23.99;37.87;99225.58;1901323;75;28079;-45
2022/12/23 06:12:46;;;;;;;1.60;0.57;;;;;;;23.98;37.92;99211.55;1880648;75;32196;-45
2022/12/23 06:15:34;;;;;;;0.75;0.75;;;;;;;23.99;37.92;99231.06;1901581;75;28106;-44
2022/12/23 06:18:23;;;;;;;0.78;0.68;;;;;;;23.98;37.89;99235.71;1874897;75;28199;-48
2022/12/23 06:21:11;;;;;;;0.50;0.50;;;;;;;23.99;37.87;99246.96;1885399;75;28096;-44
2022/12/23 06:24:00;;;;;;;0.60;0.60;;;;;;;23.98;37.87;99242.57;1879077;75;28056;-45
2022/12/23 06:26:48;;;;;;;1.22;0.62;;;;;;;23.96;37.87;99251.59;1901473;75;28184;-47
2022/12/23 06:29:37;;;;;;;0.50;0.50;;;;;;;23.98;37.88;99254.92;1880977;75;28126;-44
2022/12/23 06:32:26;;;;;;;0.55;0.50;;;;;;;23.98;37.88;99278.23;1868699;76;28088;-44
2022/12/23 06:35:14;;;;;;;0.55;0.55;;;;;;;24.00;37.89;99277.45;1890586;75;28120;-44
2022/12/23 06:38:03;;;;;;;1.10;0.70;;;;;;;23.98;37.88;99278.77;1871755;75;28118;-45
2022/12/23 06:40:51;;;;;;;0.90;0.50;;;;;;;24.00;37.82;99268.38;1901274;75;28229;-44
2022/12/23 06:43:40;;;;;;;0.60;0.60;;;;;;;23.99;37.89;99276.33;1857535;76;28220;-47
2022/12/23 06:46:28;;;;;;;0.68;0.68;;;;;;;23.98;37.90;99257.66;1898289;75;28154;-44
2022/12/23 06:49:17;;;;;;;2.50;0.50;;;;;;;23.99;37.86;99266.73;1888759;75;28140;-45
2022/12/23 06:52:05;;;;;;;0.60;0.60;;;;;;;23.98;37.94;99266.42;1883527;75;28129;-47
2022/12/23 06:54:53;;;;;;;0.42;0.42;;;;;;;24.01;37.93;99275.54;1856977;77;28139;-44
2022/12/23 06:57:42;;;;;;;0.68;0.50;;;;;;;23.98;37.96;99281.52;1884169;75;28125;-45
2022/12/23 07:00:31;;;;;;;0.50;0.50;;;;;;;23.99;37.94;99276.33;1864001;75;28327;-44
2022/12/23 07:03:19;;;;;;;0.50;0.50;;;;;;;23.98;37.97;99276.87;1872432;75;28141;-46
2022/12/23 07:06:08;;;;;;;0.55;0.55;;;;;;;23.98;37.99;99276.03;1857077;77;28131;-45
2022/12/23 07:08:56;;;;;;;1.32;0.70;;;;;;;23.97;38.01;99278.47;1878498;75;28064;-46
2022/12/23 07:11:44;;;;;;;0.60;0.60;;;;;;;24.04;37.85;99287.37;1867811;75;28126;-44
2022/12/23 07:14:33;;;;;;;1.70;0.60;;;;;;;24.07;37.83;99282.80;1882963;75;28228;-45
2022/12/23 07:17:21;;;;;;;0.60;0.60;;;;;;;24.11;37.82;99297.67;1886893;75;33090;-44
2022/12/23 07:20:12;;;;;;;0.53;0.53;;;;;;;24.08;37.67;99292.70;1892757;75;28122;-45
2022/12/23 07:23:00;;;;;;;0.85;0.60;;;;;;;24.07;37.57;99294.30;1882835;75;28170;-44
2022/12/23 07:25:48;;;;;;;0.50;0.50;;;;;;;24.08;37.57;99289.96;1868892;76;28173;-44
2022/12/23 07:28:37;;;;;;;0.42;0.42;;;;;;;24.08;37.63;99290.49;1897907;75;28116;-44
2022/12/23 07:31:25;;;;;;;0.60;0.60;;;;;;;24.09;37.70;99299.00;1889113;75;28225;-44
2022/12/23 07:34:14;;;;;;;0.60;0.60;;;;;;;24.08;37.68;99295.45;1889090;75;28129;-46
2022/12/23 07:37:02;;;;;;;1.70;0.68;;;;;;;23.99;37.74;99279.08;1868790;75;28074;-44
2022/12/23 07:39:51;;;;;;;0.40;0.40;;;;;;;24.03;37.79;99294.80;1863303;75;28060;-45
2022/12/23 07:42:39;;;;;;;3.80;0.60;;;;;;;24.05;37.92;99306.87;1867346;75;28174;-47
2022/12/23 07:45:29;;;;;;;0.70;0.70;;;;;;;24.05;38.00;99304.14;1872641;75;28821;-45
2022/12/23 07:48:18;;;;;;;0.90;0.80;;;;;;;24.07;38.16;99310.77;1901376;75;28120;-48
2022/12/23 07:51:06;;;;;;;0.60;0.60;;;;;;;24.08;38.28;99312.45;1896771;75;28260;-47
2022/12/23 07:53:55;;;;;;;1.30;0.70;;;;;;;24.04;38.34;99318.39;1868878;76;28135;-45
2022/12/23 07:56:43;;;;;;;0.78;0.68;;;;;;;24.03;38.52;99326.88;1868853;76;28631;-46
2022/12/23 07:59:31;;;;;;;0.68;0.68;;;;;;;24.03;38.77;99320.02;1900338;75;28122;-46
2022/12/23 08:02:23;;;;;;;1.20;0.70;;;;;;;24.02;38.94;99304.62;1879588;75;28135;-46
2022/12/23 08:05:11;;;;;;;0.70;0.70;;;;;;;24.00;38.86;99298.02;1889049;75;28158;-45
2022/12/23 08:07:59;;;;;;;0.60;0.60;;;;;;;24.00;38.91;99308.16;1856959;77;28201;-45
2022/12/23 08:10:47;;;;;;;0.70;0.60;;;;;;;23.99;38.94;99327.90;1876190;75;28103;-45
2022/12/23 08:13:38;;;;;;;0.60;0.60;;;;;;;24.00;38.96;99332.86;1878164;75;28127;-45
2022/12/23 08:16:27;;;;;;;0.60;0.60;;;;;;;23.97;39.00;99320.45;1886521;75;28129;-47
2022/12/23 08:19:16;;;;;;;0.50;0.50;;;;;;;23.95;39.07;99324.00;1901579;75;28521;-47
2022/12/23 08:22:04;;;;;;;1.55;0.70;;;;;;;23.97;39.04;99324.58;1867320;75;28216;-45
2022/12/23 08:24:53;;;;;;;0.65;0.65;;;;;;;23.95;39.09;99323.16;1901061;75;28143;-45
2022/12/23 08:27:41;;;;;;;0.90;0.60;;;;;;;23.93;39.05;99332.18;1868827;76;37281;-46
2022/12/23 08:30:29;;;;;;;0.60;0.60;;;;;;;23.92;39.08;99328.59;1878691;75;28062;-46
2022/12/23 08:33:18;;;;;;;0.60;0.60;;;;;;;23.91;39.11;99311.02;1901203;75;28175;-46
2022/12/23 08:36:08;;;;;;;1.37;0.60;;;;;;;23.91;39.10;99313.77;1869422;75;28155;-45
2022/12/23 08:38:58;;;;;;;0.83;0.80;;;;;;;23.92;39.13;99326.42;1856847;77;28123;-46
2022/12/23 08:41:47;;;;;;;1.52;0.80;;;;;;;23.88;39.07;99326.59;1865711;75;28598;-45
2022/12/23 08:44:36;;;;;;;0.50;0.50;;;;;;;23.91;39.15;99326.11;1873346;74;28168;-46
2022/12/23 08:47:24;;;;;;;0.60;0.60;;;;;;;23.92;39.05;99329.97;1883194;75;28374;-49
2022/12/23 08:50:12;;;;;;;0.75;0.70;;;;;;;23.90;39.07;99335.41;1883620;75;28154;-47
2022/12/23 08:53:00;;;;;;;1.05;0.70;;;;;;;23.89;39.10;99351.59;1885843;75;28189;-45
2022/12/23 08:55:49;;;;;;;0.63;0.63;;;;;;;23.90;39.02;99358.73;1886882;75;28146;-47
2022/12/23 08:58:44;;;;;;;0.50;0.50;;;;;;;23.90;39.04;99354.08;1882305;75;28089;-44
2022/12/23 09:01:34;;;;;;;0.70;0.70;;;;;;;23.89;39.07;99342.83;1867871;75;28112;-46
2022/12/23 09:04:22;;;;;;;0.60;0.60;;;;;;;23.87;39.03;99355.97;1886974;75;28182;-46
2022/12/23 09:07:11;;;;;;;1.37;0.78;;;;;;;23.87;39.05;99360.61;1887069;75;28177;-44
2022/12/23 09:09:59;;;;;;;0.57;0.53;;;;;;;23.89;39.09;99373.54;1882219;75;28141;-44
2022/12/23 09:12:49;;;;;;;0.50;0.50;;;;;;;23.87;39.06;99373.80;1863603;76;28132;-46
2022/12/23 09:15:45;;;;;;;0.50;0.50;;;;;;;23.86;39.07;99374.02;1884027;75;28123;-45
2022/12/23 09:18:33;;;;;;;0.68;0.68;;;;;;;23.86;39.07;99378.13;1883992;74;28071;-45
2022/12/23 09:21:23;;;;;;;0.40;0.40;;;;;;;23.86;39.03;99372.12;1883153;75;28084;-46
2022/12/23 09:24:11;;;;;;;0.40;0.40;;;;;;;23.85;39.09;99369.06;1883490;75;28146;-46
2022/12/23 09:26:59;;;;;;;0.70;0.57;;;;;;;23.86;39.05;99356.19;1883831;75;28111;-46
2022/12/23 09:29:48;;;;;;;0.80;0.50;;;;;;;23.85;39.09;99350.43;1884257;75;28084;-47
2022/12/23 09:32:36;;;;;;;0.50;0.50;;;;;;;23.85;39.07;99342.20;1887065;75;38474;-45
2022/12/23 09:35:25;;;;;;;0.62;0.62;;;;;;;23.84;39.08;99352.33;1862463;76;28146;-45
2022/12/23 09:38:13;;;;;;;0.60;0.60;;;;;;;23.83;39.09;99359.41;1884111;75;28170;-47
2022/12/23 09:41:04;;;;;;;0.70;0.70;;;;;;;23.82;39.15;99355.03;1883665;75;28192;-47
2022/12/23 09:43:58;;;;;;;0.70;0.70;;;;;;;23.84;39.09;99351.49;1882674;75;28190;-47
2022/12/23 09:46:55;;;;;;;0.50;0.50;;;;;;;23.81;39.10;99363.78;1878738;75;28224;-46
2022/12/23 09:49:55;;;;;;;0.70;0.70;;;;;;;23.81;39.16;99371.17;1890760;75;28294;-44
2022/12/23 09:53:02;;;;;;;0.60;0.60;;;;;;;23.80;39.19;99355.81;1858149;75;28115;-45
2022/12/23 09:56:08;;;;;;;0.50;0.50;;;;;;;23.80;39.20;99353.07;1892177;75;28141;-47
2022/12/23 09:59:24;;;;;;;0.90;0.50;;;;;;;23.78;39.18;99353.86;1901571;75;28126;-47
2022/12/23 10:02:15;;;;;;;0.60;0.60;;;;;;;23.76;39.22;99343.65;1868700;76;28505;-45
2022/12/23 10:05:15;;;;;;;0.47;0.47;;;;;;;23.73;39.26;99348.27;1856914;77;28080;-44
2022/12/23 10:08:06;;;;;;;0.50;0.50;;;;;;;23.73;39.34;99345.00;1882804;75;28060;-45
2022/12/23 10:11:09;;;;;;;0.60;0.60;;;;;;;23.74;39.28;99346.65;1867232;75;28126;-46
2022/12/23 10:14:00;;;;;;;0.65;0.65;;;;;;;23.75;39.32;99347.48;1893335;75;28217;-46
2022/12/23 10:16:51;;;;;;;0.70;0.70;;;;;;;23.70;39.57;99346.02;1877965;74;28052;-52
2022/12/23 10:19:46;;;;;;;0.90;0.60;;;;;;;23.75;39.50;99335.14;1877007;75;28189;-54
2022/12/23 10:22:40;;;;;;;0.67;0.67;;;;;;;23.79;39.50;99343.16;1883229;75;28109;-60
2022/12/23 10:25:32;;;;;;;0.47;0.47;;;;;;;23.77;39.58;99342.59;1878545;75;28158;-51
2022/12/23 10:28:20;;;;;;;0.93;0.70;;;;;;;23.78;39.63;99363.46;1895287;75;28061;-50
2022/12/23 10:31:12;;;;;;;2.58;1.42;;;;;;;23.80;39.63;99343.47;1887296;75;28145;-54
2022/12/23 10:34:06;;;;;;;4.30;2.20;;;;;;;23.79;39.72;99343.16;1870048;75;28300;-52
2022/12/23 10:37:00;;;;;;;4.10;2.27;;;;;;;23.82;39.67;99340.78;1885732;75;28125;-52
2022/12/23 10:40:03;;;;;;;4.80;2.85;;;;;;;23.86;39.73;99324.64;1874839;75;28330;-51
2022/12/23 10:43:00;;;;;;;6.67;3.17;;;;;;;23.88;39.67;99320.58;1859416;75;28145;-54
2022/12/23 10:46:06;;;;;;;6.58;3.10;;;;;;;23.90;39.68;99317.58;1880795;74;33045;-56
2022/12/23 10:49:14;;;;;;;4.55;2.77;;;;;;;23.94;39.65;99328.37;1896598;74;28160;-58
2022/12/23 10:52:21;;;;;;;6.35;2.92;;;;;;;23.95;39.68;99334.97;1890245;74;28122;-56
2022/12/23 10:55:12;;;;;;;5.40;2.60;;;;;;;23.98;39.66;99326.78;1902103;74;28214;-54
2022/12/23 10:58:03;;;;;;;7.00;2.70;;;;;;;24.01;39.62;99340.02;1910760;74;28238;-58
2022/12/23 11:01:00;;;;;;;5.45;2.30;;;;;;;24.01;39.63;99336.71;1885382;74;28172;-52
2022/12/23 11:04:19;;;;;;;4.30;2.50;;;;;;;24.00;39.73;99329.58;1883207;74;28266;-49
2022/12/23 11:07:10;;;;;;;2.70;2.15;;;;;;;24.07;39.71;99321.21;1900073;74;28203;-53
2022/12/23 11:10:04;;;;;;;2.97;2.10;;;;;;;24.03;39.54;99314.00;1892858;74;28255;-49
2022/12/23 11:12:54;;;;;;;2.83;2.20;;;;;;;24.07;39.49;99295.67;1878016;76;28165;-52
2022/12/23 11:15:42;;;;;;;3.62;2.20;;;;;;;24.09;39.49;99288.02;1907510;74;28228;-52
2022/12/23 11:18:30;;;;;;;2.90;1.90;;;;;;;23.88;39.90;99300.53;1910642;74;28278;-54
2022/12/23 11:21:19;;;;;;;2.17;1.95;;;;;;;23.69;40.41;99290.86;1890189;74;28239;-51
2022/12/23 11:24:20;;;;;;;3.33;1.85;;;;;;;23.56;40.72;99297.50;1877698;76;28236;-51
2022/12/23 11:27:12;;;;;;;4.17;1.70;;;;;;;23.48;40.95;99325.30;1878110;76;28296;-50
2022/12/23 11:30:00;;;;;;;3.02;1.60;;;;;;;23.40;41.18;99316.63;1881038;74;28193;-52
2022/12/23 11:32:51;;;;;;;1.82;1.65;;;;;;;23.36;41.21;99312.20;1891617;74;28583;-52
2022/12/23 11:35:40;;;;;;;1.62;1.52;;;;;;;23.30;41.29;99308.48;1877744;76;28169;-49
2022/12/23 11:38:29;;;;;;;2.08;1.40;;;;;;;23.30;41.34;99293.41;1900173;74;28146;-51
2022/12/23 11:41:24;;;;;;;3.37;1.52;;;;;;;23.31;41.39;99323.83;1901816;74;28154;-51
2022/12/23 11:44:24;;;;;;;2.40;1.50;;;;;;;23.31;41.37;99325.20;1891779;74;28256;-49
2022/12/23 11:47:41;;;;;;;2.30;1.52;;;;;;;23.29;41.39;99330.09;1894021;74;28159;-51
2022/12/23 11:50:33;;;;;;;2.15;1.32;;;;;;;23.28;41.50;99311.16;1877884;76;28267;-51
2022/12/23 11:53:23;;;;;;;1.30;1.30;;;;;;;23.20;41.53;99309.63;1877933;76;28208;-50
2022/12/23 11:56:14;;;;;;;2.37;1.35;;;;;;;23.22;41.56;99299.81;1906404;74;28107;-48
2022/12/23 11:59:05;;;;;;;1.20;1.20;;;;;;;23.22;41.57;99286.11;1888911;74;28140;-52
2022/12/23 12:01:56;;;;;;;1.55;1.40;;;;;;;23.21;41.62;99287.17;1892207;74;28254;-51
2022/12/23 12:04:47;;;;;;;1.70;1.40;;;;;;;23.20;41.63;99315.11;1890786;74;28125;-53
2022/12/23 12:07:36;;;;;;;2.55;1.32;;;;;;;23.23;41.69;99305.58;1879094;74;28226;-49
2022/12/23 12:10:34;;;;;;;1.55;1.25;;;;;;;23.25;41.65;99327.55;1878426;74;28275;-51
2022/12/23 12:13:31;;;;;;;1.20;1.20;;;;;;;23.24;41.62;99311.36;1910621;74;28187;-54
2022/12/23 12:16:37;;;;;;;1.37;1.22;;;;;;;23.23;41.66;99314.63;1894181;74;28206;-50
2022/12/23 12:19:35;;;;;;;1.60;1.30;;;;;;;23.21;41.70;99307.20;1896255;74;28137;-52
2022/12/23 12:22:35;;;;;;;2.12;1.30;;;;;;;23.25;41.66;99293.30;1899981;74;28152;-50
2022/12/23 12:25:45;;;;;;;1.20;1.10;;;;;;;23.22;41.67;99292.41;1907380;74;28121;-53
2022/12/23 12:28:36;;;;;;;1.25;1.20;;;;;;;23.21;41.71;99291.28;1904749;74;28195;-49
2022/12/23 12:31:37;;;;;;;1.27;1.17;;;;;;;23.22;41.73;99303.36;1900266;74;28105;-49
2022/12/23 12:34:34;;;;;;;1.42;1.30;;;;;;;23.22;41.73;99298.45;1897242;74;28250;-51
2022/12/23 12:37:37;;;;;;;1.40;1.02;;;;;;;23.22;41.71;99292.41;1895474;74;28181;-50
2022/12/23 12:40:31;;;;;;;1.45;1.20;;;;;;;23.21;41.72;99286.64;1836178;74;28186;-51
2022/12/23 12:43:32;;;;;;;1.40;1.10;;;;;;;23.18;41.79;99309.05;1883957;74;28301;-52
2022/12/23 12:46:42;;;;;;;1.25;1.15;;;;;;;23.17;41.81;99306.03;1884553;74;28282;-52
2022/12/23 12:49:51;;;;;;;2.10;1.10;;;;;;;23.19;41.80;99322.22;1903233;74;28246;-52
2022/12/23 12:52:43;;;;;;;1.23;1.13;;;;;;;23.18;41.80;99315.05;1907841;74;28225;-54
2022/12/23 12:55:45;;;;;;;0.90;0.90;;;;;;;23.19;41.76;99327.16;1896917;74;28227;-50
2022/12/23 12:58:33;;;;;;;1.27;1.17;;;;;;;23.22;41.72;99314.33;1877991;76;28190;-50
2022/12/23 13:01:40;;;;;;;1.37;1.27;;;;;;;23.22;41.69;99322.55;1910417;74;28252;-50
2022/12/23 13:05:05;;;;;;;1.30;1.20;;;;;;;23.24;41.72;99323.70;1910855;74;28133;-49
2022/12/23 13:08:20;;;;;;;1.30;1.20;;;;;;;23.20;41.74;99304.15;1889950;74;28156;-51
2022/12/23 13:11:36;;;;;;;1.10;1.10;;;;;;;23.16;41.87;99326.27;1880702;74;28191;-49
2022/12/23 13:14:32;;;;;;;1.95;1.55;;;;;;;23.19;41.82;99321.69;1899027;74;28159;-54
2022/12/23 13:17:35;;;;;;;1.10;1.10;;;;;;;23.16;41.83;99344.08;1886014;74;28168;-52
2022/12/23 13:20:35;;;;;;;1.30;1.30;;;;;;;23.19;41.77;99343.61;1910742;74;28290;-51
2022/12/23 13:23:26;;;;;;;1.60;1.50;;;;;;;23.17;41.81;99323.84;1863262;74;28176;-56
2022/12/23 13:26:34;;;;;;;2.02;1.30;;;;;;;23.18;41.77;99333.70;1910598;74;28648;-52
2022/12/23 13:29:31;;;;;;;1.22;1.20;;;;;;;23.21;41.76;99347.46;1886451;74;28107;-51
2022/12/23 13:32:28;;;;;;;1.30;1.30;;;;;;;23.23;41.74;99353.00;1860601;75;28238;-51
2022/12/23 13:35:39;;;;;;;1.40;1.30;;;;;;;23.25;41.66;99346.73;1889822;75;28141;-53
2022/12/23 13:38:46;;;;;;;1.40;1.30;;;;;;;23.20;41.77;99339.77;1898437;75;28178;-52
2022/12/23 13:41:38;;;;;;;1.50;1.40;;;;;;;23.21;41.76;99335.97;1868740;76;28248;-48
2022/12/23 13:44:27;;;;;;;1.72;1.10;;;;;;;23.22;41.75;99323.92;1892236;75;28175;-53
2022/12/23 13:47:40;;;;;;;1.10;1.10;;;;;;;23.29;41.71;99335.58;1886690;75;28126;-48
2022/12/23 13:50:37;;;;;;;1.20;1.10;;;;;;;23.34;41.65;99332.10;1807904;76;28172;-53
2022/12/23 13:53:37;;;;;;;1.30;1.20;;;;;;;23.31;41.67;99321.65;1899888;75;28327;-53
2022/12/23 13:56:40;;;;;;;1.50;1.40;;;;;;;23.35;41.62;99318.20;1869439;75;28213;-51
2022/12/23 13:59:40;;;;;;;1.07;1.02;;;;;;;23.41;41.53;99301.87;1897490;75;28158;-55